createdAt,value
2023-03-15T00:01:19.521Z,10.52
2023-03-15T00:04:22.307Z,10.47
2023-03-15T00:07:26.116Z,10.39
2023-03-15T00:10:38.329Z,10.38
2023-03-15T00:13:40.970Z,10.38
2023-03-15T00:16:43.703Z,10.39
2023-03-15T00:19:48.639Z,10.38
2023-03-15T00:22:50.980Z,10.28
2023-03-15T00:25:54.070Z,10.20
2023-03-15T00:28:56.429Z,10.16
2023-03-15T00:31:59.547Z,10.30
2023-03-15T00:35:01.974Z,10.21
2023-03-15T00:38:04.930Z,10.11
2023-03-15T00:41:12.524Z,10.15
2023-03-15T00:44:14.780Z,10.10
2023-03-15T00:47:16.931Z,10.23
2023-03-15T00:50:20.805Z,10.15
2023-03-15T00:53:22.982Z,10.06
2023-03-15T00:56:27.878Z,10.05
2023-03-15T00:59:34.936Z,9.95
2023-03-15T01:02:38.067Z,9.90
2023-03-15T01:05:40.983Z,9.87
2023-03-15T01:08:43.660Z,9.83
2023-03-15T01:11:45.935Z,9.83
2023-03-15T01:14:48.018Z,9.90
2023-03-15T01:17:50.435Z,9.81
2023-03-15T01:20:54.311Z,9.87
2023-03-15T01:23:59.027Z,9.72
2023-03-15T01:27:00.987Z,9.70
2023-03-15T01:30:03.283Z,9.77
2023-03-15T01:33:08.098Z,9.64
2023-03-15T01:36:11.948Z,9.69
2023-03-15T01:39:14.495Z,9.63
2023-03-15T01:42:17.107Z,9.71
2023-03-15T01:45:56.897Z,9.56
2023-03-15T01:49:16.573Z,9.43
2023-03-15T01:52:23.535Z,9.45
2023-03-15T01:55:25.743Z,9.50
2023-03-15T01:58:30.268Z,9.40
2023-03-15T02:01:36.409Z,9.40
2023-03-15T02:04:47.168Z,9.38
2023-03-15T02:07:50.680Z,9.47
2023-03-15T02:10:58.865Z,9.45
2023-03-15T02:14:05.285Z,9.38
2023-03-15T02:17:07.993Z,9.35
2023-03-15T02:20:33.886Z,9.37
2023-03-15T02:23:36.623Z,9.28
2023-03-15T02:26:45.941Z,9.24
2023-03-15T02:29:48.110Z,9.30
2023-03-15T02:32:51.028Z,9.24
2023-03-15T02:35:54.496Z,9.14
2023-03-15T02:38:58.656Z,9.17
2023-03-15T02:42:02.062Z,9.14
2023-03-15T02:45:04.626Z,9.08
2023-03-15T02:48:10.737Z,9.07
2023-03-15T02:51:22.013Z,9.10
2023-03-15T02:54:24.954Z,9.02
2023-03-15T02:57:28.606Z,9.09
2023-03-15T03:00:33.693Z,9.06
2023-03-15T03:03:35.720Z,9.02
2023-03-15T03:06:38.287Z,9.02
2023-03-15T03:09:42.220Z,9.10
2023-03-15T03:12:44.888Z,9.05
2023-03-15T03:15:50.150Z,9.07
2023-03-15T03:18:52.883Z,9.15
2023-03-15T03:21:55.033Z,9.11
2023-03-15T03:24:57.148Z,9.07
2023-03-15T03:27:59.736Z,9.16
2023-03-15T03:31:02.029Z,9.04
2023-03-15T03:34:04.252Z,8.95
2023-03-15T03:37:06.984Z,8.89
2023-03-15T03:40:11.809Z,8.89
2023-03-15T03:43:14.275Z,8.87
2023-03-15T03:46:16.484Z,8.87
2023-03-15T03:49:18.674Z,8.86
2023-03-15T03:52:21.250Z,8.82
2023-03-15T03:55:25.686Z,8.86
2023-03-15T03:58:28.451Z,8.81
2023-03-15T04:01:30.468Z,8.82
2023-03-15T04:04:32.631Z,8.77
2023-03-15T04:07:35.802Z,8.80
2023-03-15T04:10:39.680Z,8.85
2023-03-15T04:13:42.058Z,8.78
2023-03-15T04:16:44.143Z,8.81
2023-03-15T04:19:47.212Z,8.83
2023-03-15T04:22:50.228Z,8.84
2023-03-15T04:25:55.925Z,8.85
2023-03-15T04:28:59.383Z,9.04
2023-03-15T04:32:03.079Z,9.04
2023-03-15T04:35:08.296Z,8.80
2023-03-15T04:38:11.138Z,8.83
2023-03-15T04:41:16.670Z,8.70
2023-03-15T04:44:19.190Z,8.55
2023-03-15T04:47:22.832Z,8.62
2023-03-15T04:50:26.819Z,8.67
2023-03-15T04:53:29.212Z,8.49
2023-03-15T04:56:31.452Z,8.47
2023-03-15T04:59:34.321Z,8.33
2023-03-15T05:02:40.488Z,8.16
2023-03-15T05:05:42.721Z,8.03
2023-03-15T05:08:45.521Z,8.03
2023-03-15T05:11:47.686Z,7.87
2023-03-15T05:14:54.349Z,7.72
2023-03-15T05:17:58.312Z,7.79
2023-03-15T05:21:04.957Z,7.74
2023-03-15T05:24:07.418Z,7.71
2023-03-15T05:27:12.844Z,7.73
2023-03-15T05:30:20.414Z,7.45
2023-03-15T05:33:23.089Z,7.44
2023-03-15T05:36:25.478Z,7.42
2023-03-15T05:39:27.639Z,7.25
2023-03-15T05:42:33.169Z,7.21
2023-03-15T05:45:36.071Z,7.35
2023-03-15T05:48:38.606Z,7.25
2023-03-15T05:51:42.198Z,7.21
2023-03-15T05:54:45.261Z,7.22
2023-03-15T05:57:47.461Z,7.16
2023-03-15T06:00:51.459Z,7.16
2023-03-15T06:03:53.858Z,6.99
2023-03-15T06:06:56.397Z,6.96
2023-03-15T06:09:58.944Z,7.10
2023-03-15T06:13:01.399Z,7.12
2023-03-15T06:16:03.561Z,6.97
2023-03-15T06:19:08.377Z,7.03
2023-03-15T06:22:18.213Z,7.21
2023-03-15T06:25:27.411Z,7.21
2023-03-15T06:28:29.667Z,7.31
2023-03-15T06:31:32.586Z,7.20
2023-03-15T06:34:36.122Z,7.16
2023-03-15T06:37:41.068Z,7.04
2023-03-15T06:40:50.356Z,6.92
2023-03-15T06:43:55.604Z,7.16
2023-03-15T06:46:58.174Z,7.13
2023-03-15T06:50:00.746Z,7.24
2023-03-15T06:53:03.419Z,7.03
2023-03-15T06:56:06.476Z,7.19
2023-03-15T06:59:09.326Z,7.01
2023-03-15T07:02:18.243Z,7.02
2023-03-15T07:05:21.335Z,7.19
2023-03-15T07:08:25.726Z,7.43
2023-03-15T07:11:28.199Z,7.21
2023-03-15T07:14:30.558Z,7.06
2023-03-15T07:17:34.993Z,7.23
2023-03-15T07:20:39.775Z,7.05
2023-03-15T07:23:42.627Z,7.15
2023-03-15T07:26:45.328Z,7.07
2023-03-15T07:29:47.953Z,7.27
2023-03-15T07:32:50.231Z,7.10
2023-03-15T07:35:53.984Z,7.02
2023-03-15T07:39:03.401Z,7.11
2023-03-15T07:42:07.618Z,7.06
2023-03-15T07:45:11.548Z,7.11
2023-03-15T07:48:14.203Z,7.18
2023-03-15T07:51:17.491Z,7.31
2023-03-15T07:54:21.363Z,7.22
2023-03-15T07:57:23.929Z,7.21
2023-03-15T08:00:27.116Z,7.25
2023-03-15T08:03:32.077Z,7.30
2023-03-15T08:06:34.995Z,7.42
2023-03-15T08:09:37.282Z,7.47
2023-03-15T08:12:40.925Z,7.47
2023-03-15T08:15:46.477Z,7.53
2023-03-15T08:18:49.239Z,7.43
2023-03-15T08:21:54.017Z,7.63
2023-03-15T08:24:57.774Z,7.59
2023-03-15T08:28:01.122Z,7.64
2023-03-15T08:31:09.937Z,7.84
2023-03-15T08:34:13.017Z,7.77
2023-03-15T08:37:15.418Z,7.64
2023-03-15T08:40:24.034Z,7.68
2023-03-15T08:43:29.596Z,7.79
2023-03-15T08:46:33.023Z,7.93
2023-03-15T08:49:36.064Z,8.05
2023-03-15T08:52:40.348Z,7.79
2023-03-15T08:55:43.787Z,7.75
2023-03-15T08:58:46.184Z,7.81
2023-03-15T09:01:48.374Z,7.69
2023-03-15T09:04:52.462Z,7.54
2023-03-15T09:07:56.946Z,7.61
2023-03-15T09:10:59.975Z,7.48
2023-03-15T09:14:03.220Z,7.40
2023-03-15T09:17:05.816Z,7.46
2023-03-15T09:20:15.892Z,7.37
2023-03-15T09:23:18.262Z,7.49
2023-03-15T09:26:20.313Z,7.48
2023-03-15T09:29:23.321Z,7.61
2023-03-15T09:32:28.823Z,7.55
2023-03-15T09:35:34.576Z,7.44
2023-03-15T09:38:37.880Z,7.45
2023-03-15T09:41:49.911Z,7.38
2023-03-15T09:45:04.965Z,7.23
2023-03-15T09:48:16.890Z,7.28
2023-03-15T09:51:38.737Z,7.29
2023-03-15T09:54:47.141Z,7.21
2023-03-15T09:57:58.814Z,7.15
2023-03-15T10:01:15.103Z,7.17
2023-03-15T10:04:30.471Z,7.22
2023-03-15T10:07:35.820Z,7.17
2023-03-15T10:10:48.238Z,7.22
2023-03-15T10:14:07.655Z,7.17
2023-03-15T10:17:13.934Z,7.06
2023-03-15T10:20:42.353Z,7.19
2023-03-15T10:23:54.231Z,7.28
2023-03-15T10:27:29.985Z,7.27
2023-03-15T10:30:40.570Z,7.33
2023-03-15T10:33:44.437Z,7.53
2023-03-15T10:36:59.876Z,7.36
2023-03-15T10:40:02.693Z,7.68
2023-03-15T10:43:29.701Z,7.75
2023-03-15T10:46:35.758Z,7.91
2023-03-15T10:49:40.459Z,7.99
2023-03-15T10:52:46.088Z,7.78
2023-03-15T10:55:49.642Z,7.93
2023-03-15T10:59:09.522Z,7.97
2023-03-15T11:02:17.380Z,7.99
2023-03-15T11:05:20.292Z,8.04
2023-03-15T11:08:25.204Z,8.32
2023-03-15T11:11:27.937Z,8.54
2023-03-15T11:14:38.110Z,8.47
2023-03-15T11:17:50.970Z,8.63
2023-03-15T11:21:00.701Z,8.62
2023-03-15T11:24:06.144Z,8.74
2023-03-15T11:27:18.404Z,8.64
2023-03-15T11:30:34.545Z,8.35
2023-03-15T11:34:01.430Z,8.43
2023-03-15T11:37:13.104Z,8.39
2023-03-15T11:40:40.549Z,8.45
2023-03-15T11:43:56.260Z,8.37
2023-03-15T11:47:13.814Z,8.42
2023-03-15T11:50:19.141Z,8.53
2023-03-15T11:53:28.160Z,8.57
2023-03-15T11:56:52.015Z,8.56
2023-03-15T12:00:17.157Z,8.54
2023-03-15T12:03:28.479Z,8.93
2023-03-15T12:06:36.940Z,8.82
2023-03-15T12:09:48.010Z,8.63
2023-03-15T12:12:59.415Z,8.69
2023-03-15T12:16:01.536Z,8.87
2023-03-15T12:19:24.805Z,8.81
2023-03-15T12:22:32.295Z,9.15
2023-03-15T12:25:56.125Z,9.02
2023-03-15T12:29:01.460Z,9.02
2023-03-15T12:32:03.440Z,9.10
2023-03-15T12:35:16.505Z,9.28
2023-03-15T12:38:21.728Z,9.33
2023-03-15T12:41:47.001Z,9.18
2023-03-15T12:44:49.439Z,9.11
2023-03-15T12:47:54.380Z,9.15
2023-03-15T12:51:04.043Z,8.95
2023-03-15T12:54:12.783Z,9.21
2023-03-15T12:57:32.332Z,9.08
2023-03-15T13:00:38.222Z,8.93
2023-03-15T13:03:41.964Z,9.14
2023-03-15T13:06:53.860Z,9.12
2023-03-15T13:10:18.304Z,9.27
2023-03-15T13:13:45.166Z,9.21
2023-03-15T13:17:17.617Z,9.38
2023-03-15T13:20:59.173Z,9.30
2023-03-15T13:24:02.452Z,9.30
2023-03-15T13:27:40.476Z,9.40
2023-03-15T13:30:49.022Z,9.44
2023-03-15T13:33:58.035Z,9.33
2023-03-15T13:37:02.694Z,9.41
2023-03-15T13:40:12.260Z,9.55
2023-03-15T13:43:15.495Z,9.23
2023-03-15T13:46:23.215Z,9.22
2023-03-15T13:49:25.531Z,9.27
2023-03-15T13:52:29.799Z,9.36
2023-03-15T13:55:37.917Z,9.42
2023-03-15T13:58:40.542Z,9.56
2023-03-15T14:01:43.810Z,9.36
2023-03-15T14:04:53.310Z,9.55
2023-03-15T14:07:58.224Z,9.12
2023-03-15T14:11:33.218Z,8.82
2023-03-15T14:14:51.917Z,9.00
2023-03-15T14:18:01.019Z,8.80
2023-03-15T14:21:11.901Z,8.81
2023-03-15T14:24:46.758Z,8.83
2023-03-15T14:27:49.481Z,8.88
2023-03-15T14:30:58.245Z,8.40
2023-03-15T14:34:34.055Z,8.43
2023-03-15T14:37:42.910Z,8.38
2023-03-15T14:40:46.241Z,8.26
2023-03-15T14:43:48.699Z,8.34
2023-03-15T14:46:52.182Z,8.13
2023-03-15T14:49:55.576Z,8.18
2023-03-15T14:52:59.772Z,8.07
2023-03-15T14:56:03.348Z,8.17
2023-03-15T14:59:15.991Z,8.27
2023-03-15T15:02:18.659Z,8.29
2023-03-15T15:05:27.519Z,8.15
2023-03-15T15:08:32.581Z,8.10
2023-03-15T15:11:35.301Z,8.16
2023-03-15T15:14:37.313Z,8.22
2023-03-15T15:17:40.150Z,8.19
2023-03-15T15:20:47.702Z,8.24
2023-03-15T15:23:58.932Z,8.22
2023-03-15T15:27:02.252Z,8.01
2023-03-15T15:30:05.827Z,8.24
2023-03-15T15:33:14.349Z,8.13
2023-03-15T15:36:29.490Z,8.16
2023-03-15T15:39:33.565Z,8.15
2023-03-15T15:42:35.831Z,8.10
2023-03-15T15:45:39.290Z,8.01
2023-03-15T15:48:42.204Z,7.89
2023-03-15T15:51:47.526Z,7.91
2023-03-15T15:54:52.760Z,7.83
2023-03-15T15:57:56.723Z,7.81
2023-03-15T16:01:01.408Z,7.74
2023-03-15T16:04:04.442Z,7.86
2023-03-15T16:07:09.328Z,7.78
2023-03-15T16:10:20.841Z,7.79
2023-03-15T16:13:23.320Z,7.69
2023-03-15T16:16:27.620Z,7.75
2023-03-15T16:19:29.742Z,7.67
2023-03-15T16:22:32.500Z,7.76
2023-03-15T16:25:38.367Z,7.65
2023-03-15T16:28:40.695Z,7.64
2023-03-15T16:31:43.171Z,7.65
2023-03-15T16:34:50.422Z,7.59
2023-03-15T16:37:56.729Z,7.56
2023-03-15T16:41:01.078Z,7.57
2023-03-15T16:44:17.627Z,7.46
2023-03-15T16:47:20.692Z,7.62
2023-03-15T16:50:27.296Z,7.54
2023-03-15T16:53:31.898Z,7.48
2023-03-15T16:56:37.220Z,7.38
2023-03-15T16:59:39.931Z,7.35
2023-03-15T17:02:42.465Z,7.36
2023-03-15T17:05:48.267Z,7.34
2023-03-15T17:08:53.451Z,7.18
2023-03-15T17:11:57.164Z,7.13
2023-03-15T17:15:00.707Z,7.09
2023-03-15T17:18:03.411Z,7.01
2023-03-15T17:21:19.975Z,6.98
2023-03-15T17:24:22.683Z,6.97
2023-03-15T17:27:42.688Z,6.92
2023-03-15T17:30:47.507Z,6.85
2023-03-15T17:33:50.896Z,6.77
2023-03-15T17:36:54.280Z,6.73
2023-03-15T17:39:59.219Z,6.67
2023-03-15T17:43:04.262Z,6.67
2023-03-15T17:46:07.133Z,6.61
2023-03-15T17:49:14.953Z,6.61
2023-03-15T17:52:19.276Z,6.58
2023-03-15T17:55:24.661Z,6.56
2023-03-15T17:58:27.684Z,6.62
2023-03-15T18:01:32.350Z,6.57
2023-03-15T18:04:35.164Z,6.57
2023-03-15T18:07:43.521Z,6.61
2023-03-15T18:10:50.649Z,6.54
2023-03-15T18:13:55.484Z,6.56
2023-03-15T18:16:57.759Z,6.53
2023-03-15T18:20:01.018Z,6.67
2023-03-15T18:23:05.156Z,6.57
2023-03-15T18:26:08.135Z,6.58
2023-03-15T18:29:10.592Z,6.54
2023-03-15T18:32:13.494Z,6.46
2023-03-15T18:35:22.038Z,6.52
2023-03-15T18:38:25.195Z,6.52
2023-03-15T18:41:30.103Z,6.32
2023-03-15T18:44:36.472Z,6.44
2023-03-15T18:47:39.435Z,6.43
2023-03-15T18:50:42.397Z,6.43
2023-03-15T18:53:46.333Z,6.44
2023-03-15T18:56:48.695Z,6.41
2023-03-15T18:59:51.778Z,6.39
2023-03-15T19:02:59.169Z,6.31
2023-03-15T19:06:07.534Z,6.42
2023-03-15T19:09:12.005Z,6.33
2023-03-15T19:12:14.820Z,6.28
2023-03-15T19:15:20.239Z,6.27
2023-03-15T19:18:43.791Z,6.30
2023-03-15T19:21:46.205Z,6.24
2023-03-15T19:24:48.718Z,6.23
2023-03-15T19:27:50.931Z,6.23
2023-03-15T19:30:53.744Z,6.21
2023-03-15T19:33:56.309Z,6.20
2023-03-15T19:36:59.986Z,6.16
2023-03-15T19:40:02.810Z,6.07
2023-03-15T19:43:05.336Z,6.00
2023-03-15T19:46:08.646Z,5.99
2023-03-15T19:49:11.926Z,6.02
2023-03-15T19:52:16.109Z,5.93
2023-03-15T19:55:20.695Z,5.90
2023-03-15T19:58:23.506Z,5.85
2023-03-15T20:01:26.052Z,5.83
2023-03-15T20:04:28.693Z,5.83
2023-03-15T20:07:32.268Z,5.79
2023-03-15T20:10:34.965Z,5.79
2023-03-15T20:13:37.958Z,5.75
2023-03-15T20:16:40.577Z,5.75
2023-03-15T20:19:43.472Z,5.88
2023-03-15T20:22:46.166Z,5.89
2023-03-15T20:25:50.429Z,5.91
2023-03-15T20:28:52.883Z,5.87
2023-03-15T20:31:55.288Z,5.85
2023-03-15T20:34:57.910Z,5.79
2023-03-15T20:38:06.752Z,5.74
2023-03-15T20:41:10.379Z,5.81
2023-03-15T20:44:12.895Z,5.74
2023-03-15T20:47:16.284Z,5.80
2023-03-15T20:50:19.716Z,5.91
2023-03-15T20:53:23.089Z,6.03
2023-03-15T20:56:25.696Z,5.91
2023-03-15T20:59:29.489Z,5.86
2023-03-15T21:02:32.300Z,5.89
2023-03-15T21:05:35.730Z,5.92
2023-03-15T21:08:39.023Z,6.01
2023-03-15T21:11:42.599Z,5.95
2023-03-15T21:14:45.007Z,5.99
2023-03-15T21:17:51.247Z,5.92
2023-03-15T21:21:05.062Z,5.93
2023-03-15T21:24:07.417Z,5.96
2023-03-15T21:27:11.477Z,5.92
2023-03-15T21:30:14.306Z,5.91
2023-03-15T21:33:17.578Z,5.86
2023-03-15T21:36:19.914Z,5.87
2023-03-15T21:39:23.088Z,5.86
2023-03-15T21:42:25.551Z,5.81
2023-03-15T21:45:28.208Z,5.78
2023-03-15T21:48:32.413Z,5.73
2023-03-15T21:51:37.427Z,5.74
2023-03-15T21:54:40.509Z,5.74
2023-03-15T21:57:45.128Z,5.79
2023-03-15T22:00:47.343Z,5.74
2023-03-15T22:03:50.321Z,5.72
2023-03-15T22:06:53.078Z,5.75
2023-03-15T22:09:55.727Z,5.70
2023-03-15T22:12:58.088Z,5.72
2023-03-15T22:16:00.443Z,5.73
2023-03-15T22:19:04.422Z,5.86
2023-03-15T22:22:06.962Z,5.78
2023-03-15T22:25:09.766Z,5.72
2023-03-15T22:28:12.250Z,5.77
2023-03-15T22:31:14.935Z,5.71
2023-03-15T22:34:17.438Z,5.63
2023-03-15T22:37:19.714Z,5.66
2023-03-15T22:40:23.531Z,5.69
2023-03-15T22:43:25.745Z,5.70
2023-03-15T22:46:29.129Z,5.73
2023-03-15T22:49:31.262Z,5.65
2023-03-15T22:52:33.511Z,5.67
2023-03-15T22:55:35.817Z,5.63
2023-03-15T22:58:38.171Z,5.70
2023-03-15T23:01:40.459Z,5.67
2023-03-15T23:04:43.190Z,5.50
2023-03-15T23:07:45.785Z,5.62
2023-03-15T23:10:47.926Z,5.56
2023-03-15T23:13:50.308Z,5.45
2023-03-15T23:16:52.522Z,5.49
2023-03-15T23:19:55.199Z,5.56
2023-03-15T23:22:58.225Z,5.53
2023-03-15T23:26:02.407Z,5.53
2023-03-15T23:29:11.021Z,5.54
2023-03-15T23:32:13.134Z,5.48
2023-03-15T23:35:15.692Z,5.36
2023-03-15T23:38:18.010Z,5.34
2023-03-15T23:41:20.312Z,5.34
2023-03-15T23:44:25.694Z,5.27
2023-03-15T23:47:28.113Z,5.19
2023-03-15T23:50:30.826Z,5.17
2023-03-15T23:53:33.896Z,5.10
2023-03-15T23:56:37.173Z,5.08
2023-03-15T23:59:41.562Z,5.06
